Time;durP1;ratioP1;P1;durP2;ratioP2;P2;SDS_P1;SDS_P2;PMS_P1;PMS_P2;Temp;Humidity;BMP_temperature;BMP_pressure;BME280_temperature;BME280_humidity;BME280_pressure;Samples;Min_cycle;Max_cycle;Signal;HPM_P1;HPM_P2
2023/06/18 13:28:55;;;;;;;;;;;;;;;;;;2526256;23;20025;-96
2023/06/18 13:30:41;;;;;;;17.77;12.57;;;;;;;;;;2517058;23;19905;-96
2023/06/18 13:32:03;;;;;;;17.40;11.68;;;;;;;;;;2516347;23;20015;-96
2023/06/18 13:33:40;;;;;;;;;;;;;;;;;;;;;
2023/06/18 14:49:04;;;;;;;20.05;11.45;;;;;;;;;;2418416;24;20027;-75
2023/06/18 14:50:25;;;;;;;16.50;12.00;;;;;;;;;;2424275;24;20018;-75
2023/06/18 14:51:46;;;;;;;16.50;11.00;;;;;;;;;;2441243;24;20024;-75
2023/06/18 14:53:07;;;;;;;18.58;12.43;;;;;;;;;;2428763;24;20014;-76
2023/06/18 14:54:29;;;;;;;18.83;11.52;;;;;;;;;;2491542;23;20015;-76
2023/06/18 14:55:53;;;;;;;17.42;11.60;;;;;;;;;;2507997;23;20014;-76
2023/06/18 14:57:15;;;;;;;17.75;11.18;;;;;;;;;;2521412;23;20019;-76
2023/06/18 14:58:38;;;;;;;17.27;11.63;;;;;;;;;;2510372;23;20104;-77
2023/06/18 14:59:59;;;;;;;28.42;13.68;;;;;;;;;;2507565;23;20090;-76
2023/06/18 15:01:20;;;;;;;23.92;16.25;;;;;;;;;;2518288;23;20455;-76
2023/06/18 15:02:41;;;;;;;20.10;13.00;;;;;;;;;;2508583;23;20014;-76
2023/06/18 15:04:02;;;;;;;22.88;15.88;;;;;;;;;;2506323;23;20034;-76
2023/06/18 15:05:23;;;;;;;25.80;14.90;;;;;;;;;;2518117;23;20014;-76
2023/06/18 15:06:44;;;;;;;25.35;15.70;;;;;;;;;;2506879;23;20014;-76
2023/06/18 15:08:05;;;;;;;28.67;20.63;;;;;;;;;;2517014;23;20017;-76
2023/06/18 15:09:27;;;;;;;51.75;32.35;;;;;;;;;;2509537;23;20437;-76
2023/06/18 15:10:48;;;;;;;22.40;14.38;;;;;;;;;;2506290;23;20026;-76
2023/06/18 15:12:11;;;;;;;17.08;12.60;;;;;;;;;;2516103;23;20021;-75
2023/06/18 15:13:32;;;;;;;17.23;12.23;;;;;;;;;;2509411;23;20011;-75
2023/06/18 15:14:52;;;;;;;24.25;15.63;;;;;;;;;;2518636;23;20352;-75
2023/06/18 15:16:13;;;;;;;36.08;23.40;;;;;;;;;;2511694;23;20063;-76
2023/06/18 15:17:35;;;;;;;24.48;16.73;;;;;;;;;;2508822;23;20015;-76
2023/06/18 15:18:56;;;;;;;22.48;15.90;;;;;;;;;;2506147;23;20039;-74
2023/06/18 15:20:18;;;;;;;36.03;24.58;;;;;;;;;;2510717;23;20015;-76
2023/06/18 15:21:39;;;;;;;33.05;21.48;;;;;;;;;;2509204;23;20011;-75
2023/06/18 15:23:00;;;;;;;26.05;17.58;;;;;;;;;;2520376;23;20006;-75
2023/06/18 15:24:21;;;;;;;31.70;23.38;;;;;;;;;;2523999;23;20021;-75
2023/06/18 15:25:42;;;;;;;38.00;26.98;;;;;;;;;;2522356;23;20046;-75
2023/06/18 15:27:03;;;;;;;20.02;15.77;;;;;;;;;;2495111;23;20027;-75
2023/06/18 15:28:24;;;;;;;24.98;18.63;;;;;;;;;;2506481;23;20015;-75
2023/06/18 15:29:48;;;;;;;23.75;16.30;;;;;;;;;;2519111;23;20512;-75
2023/06/18 15:31:10;;;;;;;20.45;15.90;;;;;;;;;;2520606;23;20010;-75
2023/06/18 15:32:31;;;;;;;18.08;14.20;;;;;;;;;;2521614;23;20010;-74
2023/06/18 15:33:52;;;;;;;20.45;15.63;;;;;;;;;;2521952;23;20006;-75
2023/06/18 15:35:13;;;;;;;21.70;18.33;;;;;;;;;;2522376;23;20007;-75
2023/06/18 15:36:34;;;;;;;19.30;13.13;;;;;;;;;;2522702;23;20014;-76
2023/06/18 15:38:00;;;;;;;17.08;11.85;;;;;;;;;;2511787;23;20438;-74
2023/06/18 15:39:25;;;;;;;15.38;10.85;;;;;;;;;;2519681;23;20018;-76
2023/06/18 15:40:46;;;;;;;16.77;10.70;;;;;;;;;;2509915;23;20011;-74
2023/06/18 15:42:07;;;;;;;16.23;10.80;;;;;;;;;;2517637;23;20010;-75
2023/06/18 15:43:28;;;;;;;13.55;10.30;;;;;;;;;;2521996;23;20014;-75
2023/06/18 15:44:49;;;;;;;17.90;11.05;;;;;;;;;;2510630;23;20083;-75
2023/06/18 15:46:11;;;;;;;14.32;10.35;;;;;;;;;;2506780;23;20015;-75
2023/06/18 15:47:32;;;;;;;13.50;10.55;;;;;;;;;;2499285;23;20071;-75
2023/06/18 15:48:53;;;;;;;15.60;9.55;;;;;;;;;;2517543;23;20029;-75
2023/06/18 15:50:14;;;;;;;13.20;9.38;;;;;;;;;;2509510;23;20011;-75
2023/06/18 15:51:35;;;;;;;16.90;11.32;;;;;;;;;;2505920;23;20364;-75
2023/06/18 15:52:57;;;;;;;20.17;11.50;;;;;;;;;;2518517;23;20006;-75
2023/06/18 15:54:20;;;;;;;18.27;11.85;;;;;;;;;;2510723;23;20014;-74
2023/06/18 15:55:41;;;;;;;18.80;11.90;;;;;;;;;;2510992;23;20007;-75
2023/06/18 15:57:02;;;;;;;15.13;10.75;;;;;;;;;;2523460;23;20010;-74
2023/06/18 15:58:23;;;;;;;22.83;13.00;;;;;;;;;;2519739;23;20010;-76
2023/06/18 15:59:44;;;;;;;16.17;11.02;;;;;;;;;;2528121;23;20006;-76
2023/06/18 16:01:08;;;;;;;17.55;10.25;;;;;;;;;;2535518;23;20340;-75
2023/06/18 16:02:32;;;;;;;15.70;8.82;;;;;;;;;;2533618;23;20010;-76
2023/06/18 16:03:56;;;;;;;15.32;9.70;;;;;;;;;;2533092;23;20079;-75
2023/06/18 16:05:22;;;;;;;17.42;10.48;;;;;;;;;;2520399;23;20011;-75
2023/06/18 16:06:43;;;;;;;16.30;10.88;;;;;;;;;;2530465;23;20069;-75
2023/06/18 16:08:05;;;;;;;19.90;11.35;;;;;;;;;;2536091;23;20010;-75
2023/06/18 16:09:26;;;;;;;16.85;9.77;;;;;;;;;;2522533;23;20137;-75
2023/06/18 16:10:47;;;;;;;16.23;10.40;;;;;;;;;;2529050;23;20014;-75
2023/06/18 16:12:08;;;;;;;13.00;8.52;;;;;;;;;;2534279;23;20017;-75
2023/06/18 16:13:29;;;;;;;11.73;9.17;;;;;;;;;;2510730;23;20015;-75
2023/06/18 16:14:50;;;;;;;16.13;9.27;;;;;;;;;;2514257;23;20381;-76
2023/06/18 16:16:11;;;;;;;12.20;8.50;;;;;;;;;;2516928;23;20405;-75
2023/06/18 16:17:32;;;;;;;10.82;8.05;;;;;;;;;;2517231;23;20082;-75
2023/06/18 16:18:53;;;;;;;16.35;11.45;;;;;;;;;;2529540;23;20014;-75
2023/06/18 16:20:13;;;;;;;15.30;9.02;;;;;;;;;;2533669;23;20014;-76
2023/06/18 16:21:35;;;;;;;17.35;8.43;;;;;;;;;;2534549;23;20014;-77
2023/06/18 16:22:55;;;;;;;17.83;8.85;;;;;;;;;;2533142;23;20022;-76
2023/06/18 16:24:16;;;;;;;13.05;8.68;;;;;;;;;;2535003;23;20014;-74
2023/06/18 16:25:38;;;;;;;14.65;8.57;;;;;;;;;;2535864;23;20010;-73
2023/06/18 16:27:01;;;;;;;15.15;7.78;;;;;;;;;;2532635;23;20028;-73
2023/06/18 16:28:23;;;;;;;14.65;8.40;;;;;;;;;;2534957;23;20010;-73
2023/06/18 16:29:44;;;;;;;15.48;8.05;;;;;;;;;;2535493;23;20010;-74
2023/06/18 16:31:05;;;;;;;10.75;7.90;;;;;;;;;;2534134;23;20010;-74
2023/06/18 16:32:26;;;;;;;13.20;8.02;;;;;;;;;;2534379;23;20018;-73
2023/06/18 16:33:50;;;;;;;11.02;8.07;;;;;;;;;;2521815;23;20017;-74
2023/06/18 16:35:11;;;;;;;13.60;7.57;;;;;;;;;;2518773;23;20018;-74
2023/06/18 16:36:31;;;;;;;11.52;7.47;;;;;;;;;;2529545;23;20012;-74
2023/06/18 16:37:53;;;;;;;11.43;7.45;;;;;;;;;;2531664;23;20017;-73
2023/06/18 16:39:14;;;;;;;12.30;7.18;;;;;;;;;;2532224;23;20033;-72
2023/06/18 16:40:34;;;;;;;12.70;7.82;;;;;;;;;;2532539;23;20010;-73
2023/06/18 16:41:55;;;;;;;13.82;8.45;;;;;;;;;;2533780;23;20006;-74
2023/06/18 16:43:16;;;;;;;10.13;7.28;;;;;;;;;;2531053;23;20344;-73
2023/06/18 16:44:37;;;;;;;14.07;7.78;;;;;;;;;;2518715;23;20022;-73
2023/06/18 16:45:58;;;;;;;11.48;8.00;;;;;;;;;;2528590;23;20013;-73
2023/06/18 16:47:19;;;;;;;10.82;7.22;;;;;;;;;;2532018;23;20026;-74
2023/06/18 16:48:43;;;;;;;13.27;8.48;;;;;;;;;;2531754;23;20025;-74
2023/06/18 16:50:04;;;;;;;11.50;7.25;;;;;;;;;;2535612;23;20005;-74
2023/06/18 16:51:25;;;;;;;9.98;6.82;;;;;;;;;;2533495;23;20025;-74
2023/06/18 16:52:46;;;;;;;12.20;7.35;;;;;;;;;;2522376;23;20013;-74
2023/06/18 16:54:10;;;;;;;10.13;6.95;;;;;;;;;;2530600;23;20010;-73
2023/06/18 16:55:31;;;;;;;11.23;6.97;;;;;;;;;;2535037;23;20078;-73
2023/06/18 16:56:52;;;;;;;13.18;7.32;;;;;;;;;;2534047;23;20470;-74
2023/06/18 16:58:13;;;;;;;11.30;6.68;;;;;;;;;;2534886;23;20021;-74
2023/06/18 16:59:33;;;;;;;12.40;8.02;;;;;;;;;;2521578;23;20015;-73
2023/06/18 17:00:55;;;;;;;10.38;7.38;;;;;;;;;;2529608;23;20010;-73
2023/06/18 17:02:15;;;;;;;16.50;8.10;;;;;;;;;;2522847;23;20014;-73
2023/06/18 17:03:36;;;;;;;11.57;7.13;;;;;;;;;;2517289;23;20018;-73
2023/06/18 17:04:57;;;;;;;16.30;8.30;;;;;;;;;;2527967;23;20014;-72
2023/06/18 17:06:22;;;;;;;15.93;8.05;;;;;;;;;;2520669;23;20021;-73
2023/06/18 17:07:43;;;;;;;13.15;8.05;;;;;;;;;;2529185;23;20022;-73
2023/06/18 17:09:04;;;;;;;14.00;7.20;;;;;;;;;;2540270;23;20337;-74
2023/06/18 17:10:25;;;;;;;14.95;8.43;;;;;;;;;;2531923;23;20006;-73
2023/06/18 17:11:46;;;;;;;10.35;6.70;;;;;;;;;;2540588;23;20006;-73
2023/06/18 17:13:07;;;;;;;10.40;6.65;;;;;;;;;;2545108;23;20068;-74
2023/06/18 17:14:27;;;;;;;15.93;7.00;;;;;;;;;;2544941;23;20005;-74
2023/06/18 17:15:48;;;;;;;10.35;7.28;;;;;;;;;;2532736;23;20435;-73
2023/06/18 17:17:09;;;;;;;16.05;7.97;;;;;;;;;;2541009;23;20009;-74
2023/06/18 17:18:32;;;;;;;10.68;7.55;;;;;;;;;;2545073;23;20020;-72
2023/06/18 17:19:53;;;;;;;12.05;7.00;;;;;;;;;;2544256;23;20013;-73
2023/06/18 17:21:14;;;;;;;10.07;6.97;;;;;;;;;;2533590;23;20013;-73
2023/06/18 17:22:38;;;;;;;14.77;7.35;;;;;;;;;;2541587;23;20013;-73
2023/06/18 17:24:01;;;;;;;9.10;7.10;;;;;;;;;;2545987;23;20478;-73
2023/06/18 17:25:23;;;;;;;14.70;7.75;;;;;;;;;;2533327;23;20013;-73
2023/06/18 17:26:44;;;;;;;11.23;7.07;;;;;;;;;;2541382;23;20017;-73
2023/06/18 17:28:05;;;;;;;14.85;8.00;;;;;;;;;;2545935;23;20009;-73
2023/06/18 17:29:26;;;;;;;11.27;7.68;;;;;;;;;;2533352;23;20363;-73
2023/06/18 17:30:47;;;;;;;14.13;7.63;;;;;;;;;;2542742;23;20016;-73
2023/06/18 17:32:10;;;;;;;9.13;6.82;;;;;;;;;;2544841;23;20009;-74
2023/06/18 17:33:35;;;;;;;10.90;6.88;;;;;;;;;;2545580;23;20005;-74
2023/06/18 17:34:56;;;;;;;9.95;6.97;;;;;;;;;;2545632;23;20437;-74
2023/06/18 17:36:19;;;;;;;13.65;7.90;;;;;;;;;;2533390;23;20010;-72
2023/06/18 17:37:40;;;;;;;11.95;7.05;;;;;;;;;;2540506;23;20020;-72
2023/06/18 17:39:01;;;;;;;14.30;7.88;;;;;;;;;;2533012;23;20006;-73
2023/06/18 17:40:22;;;;;;;11.77;7.40;;;;;;;;;;2542749;23;20005;-73
2023/06/18 17:41:43;;;;;;;13.15;8.18;;;;;;;;;;2545754;23;20880;-73
2023/06/18 17:43:04;;;;;;;11.05;7.95;;;;;;;;;;2545310;23;20010;-73
2023/06/18 17:44:25;;;;;;;12.85;7.68;;;;;;;;;;2545465;23;20016;-73
2023/06/18 17:45:47;;;;;;;10.85;7.80;;;;;;;;;;2544234;23;20001;-73
2023/06/18 17:47:09;;;;;;;;;;;;;;;;;;2545062;23;20420;-73
2023/06/18 17:48:30;;;;;;;14.07;7.43;;;;;;;;;;2546622;23;19955;-73
2023/06/18 17:49:51;;;;;;;11.45;7.35;;;;;;;;;;2546734;23;20384;-74
2023/06/18 17:51:12;;;;;;;11.05;6.95;;;;;;;;;;2545363;23;20044;-74
2023/06/18 17:52:33;;;;;;;17.05;8.88;;;;;;;;;;2546259;23;20013;-73
2023/06/18 17:53:54;;;;;;;12.50;7.78;;;;;;;;;;2546409;23;20355;-73
2023/06/18 17:55:15;;;;;;;9.73;7.25;;;;;;;;;;2533637;23;20010;-73
2023/06/18 17:56:36;;;;;;;11.95;7.95;;;;;;;;;;2543410;23;20006;-74
2023/06/18 17:57:57;;;;;;;13.07;8.10;;;;;;;;;;2545585;23;20014;-73
2023/06/18 17:59:21;;;;;;;12.70;8.32;;;;;;;;;;2532772;23;20010;-73
2023/06/18 18:00:42;;;;;;;16.25;8.40;;;;;;;;;;2530835;23;20017;-74
2023/06/18 18:02:03;;;;;;;40.22;11.13;;;;;;;;;;2542486;23;20037;-74
2023/06/18 18:03:24;;;;;;;38.80;10.50;;;;;;;;;;2547190;23;20032;-72
2023/06/18 18:04:45;;;;;;;48.83;12.90;;;;;;;;;;2547530;23;20012;-73
2023/06/18 18:06:08;;;;;;;34.20;11.52;;;;;;;;;;2547761;23;20006;-73
2023/06/18 18:07:29;;;;;;;26.35;10.48;;;;;;;;;;2546621;23;20022;-73
2023/06/18 18:08:51;;;;;;;29.58;10.73;;;;;;;;;;2544850;23;20053;-73
2023/06/18 18:10:12;;;;;;;58.60;12.65;;;;;;;;;;2532783;23;20014;-73
2023/06/18 18:11:32;;;;;;;35.85;10.93;;;;;;;;;;2534424;23;20017;-73
2023/06/18 18:12:53;;;;;;;44.42;13.23;;;;;;;;;;2542479;23;20013;-73
2023/06/18 18:14:19;;;;;;;38.67;11.98;;;;;;;;;;2546683;23;20010;-73
2023/06/18 18:15:40;;;;;;;23.35;9.30;;;;;;;;;;2534051;23;20010;-73
2023/06/18 18:17:01;;;;;;;25.17;9.90;;;;;;;;;;2533210;23;20009;-73
2023/06/18 18:18:22;;;;;;;28.23;10.90;;;;;;;;;;2529348;23;20452;-73
2023/06/18 18:19:43;;;;;;;20.63;9.38;;;;;;;;;;2540857;23;20010;-72
2023/06/18 18:21:04;;;;;;;24.05;10.90;;;;;;;;;;2533263;23;20014;-73
2023/06/18 18:22:25;;;;;;;20.98;9.40;;;;;;;;;;2542438;23;20017;-73
2023/06/18 18:23:46;;;;;;;25.73;10.85;;;;;;;;;;2546093;23;20013;-73
2023/06/18 18:25:07;;;;;;;23.63;10.93;;;;;;;;;;2546797;23;20010;-73
2023/06/18 18:26:28;;;;;;;22.48;9.75;;;;;;;;;;2533111;23;20396;-73
2023/06/18 18:27:49;;;;;;;19.85;10.02;;;;;;;;;;2533613;23;20069;-73
2023/06/18 18:29:13;;;;;;;18.38;9.50;;;;;;;;;;2544309;23;20012;-73
2023/06/18 18:30:34;;;;;;;18.60;10.43;;;;;;;;;;2545908;23;20009;-73
2023/06/18 18:31:56;;;;;;;15.65;10.02;;;;;;;;;;2534537;23;20572;-73
2023/06/18 18:33:17;;;;;;;15.90;9.75;;;;;;;;;;2542984;23;20466;-74
2023/06/18 18:34:38;;;;;;;15.38;9.00;;;;;;;;;;2545831;23;20466;-74
2023/06/18 18:35:59;;;;;;;21.83;11.02;;;;;;;;;;2544250;23;20009;-73
2023/06/18 18:37:19;;;;;;;14.48;9.55;;;;;;;;;;2546430;23;20013;-75
2023/06/18 18:38:40;;;;;;;16.48;9.43;;;;;;;;;;2544487;23;20668;-76
2023/06/18 18:40:02;;;;;;;13.18;9.57;;;;;;;;;;2535905;23;20006;-73
2023/06/18 18:41:23;;;;;;;27.40;11.32;;;;;;;;;;2543787;23;20005;-73
2023/06/18 18:42:44;;;;;;;17.85;9.43;;;;;;;;;;2547800;23;20010;-74
2023/06/18 18:44:08;;;;;;;14.32;8.13;;;;;;;;;;2548452;23;20010;-75
2023/06/18 18:45:29;;;;;;;17.92;9.13;;;;;;;;;;2535383;23;20017;-74
2023/06/18 18:46:50;;;;;;;20.48;9.48;;;;;;;;;;2541550;23;20020;-74
2023/06/18 18:48:10;;;;;;;30.60;11.20;;;;;;;;;;2533512;23;20018;-76
2023/06/18 18:49:31;;;;;;;13.55;8.02;;;;;;;;;;2541860;23;20010;-76
2023/06/18 18:50:53;;;;;;;30.38;11.32;;;;;;;;;;2545630;23;20348;-76
2023/06/18 18:52:14;;;;;;;22.30;10.00;;;;;;;;;;2532492;23;20017;-76
2023/06/18 18:53:35;;;;;;;24.65;10.10;;;;;;;;;;2541892;23;20009;-76
2023/06/18 18:54:56;;;;;;;15.80;9.02;;;;;;;;;;2547245;23;20013;-76
2023/06/18 18:56:17;;;;;;;14.88;8.73;;;;;;;;;;2544590;23;20009;-76
2023/06/18 18:57:38;;;;;;;15.87;8.77;;;;;;;;;;2531643;23;20018;-76
2023/06/18 18:59:01;;;;;;;16.20;9.50;;;;;;;;;;2541735;23;20021;-76
2023/06/18 19:00:22;;;;;;;17.00;8.82;;;;;;;;;;2532597;23;20014;-76
2023/06/18 19:01:43;;;;;;;20.17;9.98;;;;;;;;;;2535349;23;20440;-76
2023/06/18 19:03:04;;;;;;;10.80;7.65;;;;;;;;;;2542516;23;20013;-77
2023/06/18 19:04:25;;;;;;;15.45;9.18;;;;;;;;;;2545822;23;20012;-76
2023/06/18 19:05:46;;;;;;;19.17;10.00;;;;;;;;;;2546085;23;20452;-75
2023/06/18 19:07:07;;;;;;;15.13;9.38;;;;;;;;;;2533803;23;20014;-75
2023/06/18 19:08:29;;;;;;;15.23;9.27;;;;;;;;;;2527446;23;20014;-76
2023/06/18 19:09:50;;;;;;;;;;;;;;;;;;2541153;23;20036;-75
2023/06/18 19:11:11;;;;;;;12.70;8.07;;;;;;;;;;2546522;23;19901;-76
2023/06/18 19:12:35;;;;;;;15.75;8.90;;;;;;;;;;2532375;23;20439;-76
2023/06/18 19:13:58;;;;;;;14.48;8.73;;;;;;;;;;2542076;23;20009;-75
2023/06/18 19:15:19;;;;;;;13.32;8.40;;;;;;;;;;2545471;23;20009;-76
2023/06/18 19:16:40;;;;;;;15.23;9.35;;;;;;;;;;2544746;23;20005;-76
2023/06/18 19:18:01;;;;;;;14.85;8.98;;;;;;;;;;2543621;23;20021;-76
2023/06/18 19:19:22;;;;;;;14.30;9.57;;;;;;;;;;2532554;23;20013;-76
2023/06/18 19:20:43;;;;;;;14.80;9.07;;;;;;;;;;2540670;23;20391;-77
2023/06/18 19:22:04;;;;;;;13.48;9.43;;;;;;;;;;2543537;23;20017;-76
2023/06/18 19:23:24;;;;;;;15.18;9.43;;;;;;;;;;2544137;23;20017;-77
2023/06/18 19:24:46;;;;;;;18.17;9.48;;;;;;;;;;2533685;23;20010;-77
2023/06/18 19:26:07;;;;;;;14.88;9.68;;;;;;;;;;2528989;23;20006;-76
2023/06/18 19:27:28;;;;;;;17.73;10.77;;;;;;;;;;2528130;23;20010;-75
2023/06/18 19:28:49;;;;;;;17.80;9.80;;;;;;;;;;2531761;23;20510;-75
2023/06/18 19:30:13;;;;;;;17.67;9.65;;;;;;;;;;2541111;23;20064;-76
2023/06/18 19:31:34;;;;;;;14.38;9.30;;;;;;;;;;2544082;23;20005;-76
2023/06/18 19:32:55;;;;;;;16.20;9.40;;;;;;;;;;2532503;23;20459;-75
2023/06/18 19:34:16;;;;;;;16.55;9.65;;;;;;;;;;2538771;23;20009;-75
2023/06/18 19:35:37;;;;;;;15.05;9.27;;;;;;;;;;2543683;23;20009;-75
2023/06/18 19:37:04;;;;;;;15.07;8.85;;;;;;;;;;2531969;23;20017;-75
2023/06/18 19:38:27;;;;;;;13.65;8.90;;;;;;;;;;2541855;23;20020;-75
2023/06/18 19:39:48;;;;;;;31.45;13.15;;;;;;;;;;2541243;23;20278;-76
2023/06/18 19:41:09;;;;;;;19.70;10.05;;;;;;;;;;2531359;23;20431;-76
2023/06/18 19:42:31;;;;;;;20.30;10.10;;;;;;;;;;2528281;23;20018;-75
2023/06/18 19:43:53;;;;;;;14.50;9.07;;;;;;;;;;2527212;23;20010;-75
2023/06/18 19:45:13;;;;;;;17.47;10.03;;;;;;;;;;2529119;23;20010;-76
2023/06/18 19:46:36;;;;;;;17.98;10.30;;;;;;;;;;2541096;23;20892;-75
2023/06/18 19:47:56;;;;;;;17.65;10.23;;;;;;;;;;2532061;23;20022;-75
2023/06/18 19:49:20;;;;;;;15.38;9.90;;;;;;;;;;2541189;23;20444;-75
2023/06/18 19:50:41;;;;;;;16.33;9.65;;;;;;;;;;2543942;23;20415;-75
2023/06/18 19:52:04;;;;;;;17.08;9.10;;;;;;;;;;2544197;23;20021;-76
2023/06/18 19:53:24;;;;;;;14.13;9.38;;;;;;;;;;2546314;23;20017;-76
2023/06/18 19:54:45;;;;;;;15.80;9.63;;;;;;;;;;2531323;23;20014;-75
2023/06/18 19:56:06;;;;;;;15.98;9.40;;;;;;;;;;2539013;23;20013;-75
2023/06/18 19:57:27;;;;;;;17.23;9.30;;;;;;;;;;2544680;23;20017;-75
2023/06/18 19:58:48;;;;;;;19.67;10.38;;;;;;;;;;2535357;23;20428;-76
2023/06/18 20:00:09;;;;;;;16.50;9.55;;;;;;;;;;2541203;23;20013;-75
2023/06/18 20:01:30;;;;;;;16.52;10.13;;;;;;;;;;2545944;23;20045;-75
2023/06/18 20:02:51;;;;;;;15.57;10.05;;;;;;;;;;2532433;23;20021;-76
2023/06/18 20:04:12;;;;;;;17.25;9.95;;;;;;;;;;2540285;23;20016;-76
2023/06/18 20:05:33;;;;;;;17.38;10.65;;;;;;;;;;2545782;23;20065;-76
2023/06/18 20:06:55;;;;;;;14.55;9.50;;;;;;;;;;2532859;23;20020;-76
2023/06/18 20:08:16;;;;;;;14.65;9.05;;;;;;;;;;2529853;23;20010;-75
2023/06/18 20:09:38;;;;;;;17.90;9.98;;;;;;;;;;2542937;23;20009;-76
2023/06/18 20:11:00;;;;;;;14.45;9.65;;;;;;;;;;2545662;23;20017;-76
2023/06/18 20:12:21;;;;;;;16.35;9.25;;;;;;;;;;2531029;23;20061;-76
2023/06/18 20:13:42;;;;;;;16.48;10.13;;;;;;;;;;2529652;23;20013;-76
2023/06/18 20:15:04;;;;;;;16.08;9.55;;;;;;;;;;2540701;23;20013;-75
2023/06/18 20:16:26;;;;;;;15.20;9.18;;;;;;;;;;2544249;23;20013;-75
2023/06/18 20:17:49;;;;;;;16.00;9.60;;;;;;;;;;2542945;23;20016;-75
2023/06/18 20:19:11;;;;;;;18.30;10.32;;;;;;;;;;2531160;23;20033;-77
2023/06/18 20:20:32;;;;;;;17.60;8.88;;;;;;;;;;2529519;23;20014;-76
2023/06/18 20:21:53;;;;;;;17.60;9.93;;;;;;;;;;2539261;23;20077;-76
2023/06/18 20:23:14;;;;;;;16.30;9.43;;;;;;;;;;2530085;23;20085;-75
2023/06/18 20:24:36;;;;;;;15.68;9.98;;;;;;;;;;2529897;23;20009;-76
2023/06/18 20:25:57;;;;;;;16.48;9.30;;;;;;;;;;2542038;23;20017;-75
2023/06/18 20:27:18;;;;;;;18.98;9.73;;;;;;;;;;2532220;23;20062;-76
2023/06/18 20:28:39;;;;;;;22.98;11.23;;;;;;;;;;2502643;23;20030;-76
2023/06/18 20:30:00;;;;;;;17.02;10.35;;;;;;;;;;2524242;23;20041;-75
2023/06/18 20:31:21;;;;;;;13.82;9.35;;;;;;;;;;2540765;23;20006;-75
2023/06/18 20:32:42;;;;;;;15.27;10.05;;;;;;;;;;2543985;23;20467;-76
2023/06/18 20:34:02;;;;;;;14.23;9.10;;;;;;;;;;2542958;23;20010;-75
2023/06/18 20:35:24;;;;;;;16.27;9.52;;;;;;;;;;2531276;23;20013;-76
2023/06/18 20:36:45;;;;;;;18.47;9.87;;;;;;;;;;2528600;23;20009;-76
2023/06/18 20:38:06;;;;;;;15.35;9.82;;;;;;;;;;2541552;23;20395;-75
2023/06/18 20:39:28;;;;;;;19.52;10.13;;;;;;;;;;2545605;23;20450;-77
2023/06/18 20:40:52;;;;;;;16.98;10.30;;;;;;;;;;2543191;23;20009;-73
2023/06/18 20:42:13;;;;;;;17.63;9.52;;;;;;;;;;2542488;23;20009;-75
2023/06/18 20:43:33;;;;;;;18.48;10.88;;;;;;;;;;2543785;23;20427;-74
2023/06/18 20:44:54;;;;;;;17.48;10.35;;;;;;;;;;2543555;23;20443;-74
2023/06/18 20:46:15;;;;;;;25.33;11.57;;;;;;;;;;2530687;23;20340;-74
2023/06/18 20:47:36;;;;;;;20.95;10.02;;;;;;;;;;2539049;23;20316;-74
2023/06/18 20:48:57;;;;;;;20.73;10.07;;;;;;;;;;2540891;23;20415;-74
2023/06/18 20:50:18;;;;;;;19.42;11.02;;;;;;;;;;2543093;23;20013;-74
2023/06/18 20:51:39;;;;;;;37.25;14.90;;;;;;;;;;2542533;23;20013;-73
2023/06/18 20:53:00;;;;;;;21.40;12.15;;;;;;;;;;2518197;23;20021;-73
2023/06/18 20:54:22;;;;;;;23.55;11.50;;;;;;;;;;2521915;23;20352;-75
2023/06/18 20:55:44;;;;;;;24.05;11.82;;;;;;;;;;2539491;23;20014;-75
2023/06/18 20:57:05;;;;;;;20.60;10.57;;;;;;;;;;2542801;23;20014;-74
2023/06/18 20:58:26;;;;;;;21.77;12.30;;;;;;;;;;2529453;23;20010;-74
2023/06/18 20:59:49;;;;;;;23.08;13.00;;;;;;;;;;2540047;23;20355;-74
2023/06/18 21:01:09;;;;;;;21.60;12.00;;;;;;;;;;2529641;23;20234;-74
2023/06/18 21:02:30;;;;;;;23.95;12.70;;;;;;;;;;2531477;23;20022;-74
2023/06/18 21:03:52;;;;;;;24.80;13.57;;;;;;;;;;2539112;23;20455;-74
2023/06/18 21:05:13;;;;;;;;;;;;;;;;;;2542771;23;20009;-74
2023/06/18 21:06:34;;;;;;;24.67;12.30;;;;;;;;;;2541844;23;19905;-74
2023/06/18 21:07:55;;;;;;;18.48;11.23;;;;;;;;;;2543677;23;20040;-74
2023/06/18 21:09:16;;;;;;;20.40;11.55;;;;;;;;;;2543389;23;20021;-74
2023/06/18 21:10:38;;;;;;;16.40;11.65;;;;;;;;;;2544397;23;20013;-74
2023/06/18 21:12:00;;;;;;;;;;;;;;;;;;2546295;23;20013;-74
2023/06/18 21:13:21;;;;;;;20.27;11.57;;;;;;;;;;2544483;23;19913;-74
2023/06/18 21:14:42;;;;;;;18.45;12.20;;;;;;;;;;2532155;23;20045;-73
2023/06/18 21:16:03;;;;;;;19.23;11.77;;;;;;;;;;2541188;23;20010;-73
2023/06/18 21:17:24;;;;;;;20.42;12.20;;;;;;;;;;2543348;23;20419;-74
2023/06/18 21:18:45;;;;;;;30.63;15.05;;;;;;;;;;2529096;23;20024;-73
2023/06/18 21:20:06;;;;;;;24.67;12.90;;;;;;;;;;2540736;23;20016;-73
2023/06/18 21:21:27;;;;;;;30.13;14.80;;;;;;;;;;2528409;23;20018;-73
2023/06/18 21:22:48;;;;;;;19.00;12.63;;;;;;;;;;2542176;23;20005;-73
2023/06/18 21:24:08;;;;;;;17.13;11.45;;;;;;;;;;2535422;23;20010;-74
2023/06/18 21:25:29;;;;;;;19.73;11.27;;;;;;;;;;2540787;23;20379;-74
2023/06/18 21:26:50;;;;;;;18.27;11.48;;;;;;;;;;2531707;23;20021;-73
2023/06/18 21:28:11;;;;;;;21.90;12.10;;;;;;;;;;2539655;23;20045;-74
2023/06/18 21:29:32;;;;;;;20.17;11.93;;;;;;;;;;2531992;23;20036;-74
2023/06/18 21:30:53;;;;;;;19.38;11.93;;;;;;;;;;2528703;23;20364;-74
2023/06/18 21:32:14;;;;;;;22.48;12.77;;;;;;;;;;2542220;23;20009;-74
2023/06/18 21:33:35;;;;;;;24.10;14.15;;;;;;;;;;2532240;23;20033;-74
2023/06/18 21:34:56;;;;;;;18.08;12.13;;;;;;;;;;2542086;23;20044;-74
2023/06/18 21:36:20;;;;;;;19.27;12.27;;;;;;;;;;2544257;23;20010;-73
2023/06/18 21:37:43;;;;;;;20.50;12.65;;;;;;;;;;2543609;23;20017;-74
2023/06/18 21:39:06;;;;;;;19.05;12.27;;;;;;;;;;2531278;23;20010;-74
2023/06/18 21:40:27;;;;;;;18.83;12.07;;;;;;;;;;2542395;23;20010;-74
2023/06/18 21:41:49;;;;;;;22.67;13.20;;;;;;;;;;2543978;23;20033;-74
2023/06/18 21:43:10;;;;;;;;;;;;;;;;;;2544202;23;20455;-73
2023/06/18 21:44:31;;;;;;;20.15;12.73;;;;;;;;;;2544751;23;19905;-73
2023/06/18 21:45:52;;;;;;;16.77;12.65;;;;;;;;;;2543439;23;20010;-74
2023/06/18 21:47:14;;;;;;;17.58;11.88;;;;;;;;;;2543454;23;20009;-73
2023/06/18 21:48:38;;;;;;;24.08;13.60;;;;;;;;;;2531497;23;20022;-73
2023/06/18 21:49:59;;;;;;;19.00;12.05;;;;;;;;;;2532340;23;20007;-73
2023/06/18 21:51:23;;;;;;;20.33;12.15;;;;;;;;;;2540680;23;20009;-74
2023/06/18 21:52:44;;;;;;;21.67;13.07;;;;;;;;;;2530540;23;20355;-73
2023/06/18 21:54:05;;;;;;;25.08;12.48;;;;;;;;;;2539213;23;20012;-73
2023/06/18 21:55:26;;;;;;;24.95;13.82;;;;;;;;;;2543751;23;20040;-73
2023/06/18 21:56:47;;;;;;;22.85;13.50;;;;;;;;;;2543272;23;20140;-73
2023/06/18 21:58:07;;;;;;;18.88;12.90;;;;;;;;;;2542418;23;20020;-73
2023/06/18 21:59:28;;;;;;;20.95;12.60;;;;;;;;;;2542971;23;20010;-73
2023/06/18 22:00:50;;;;;;;17.70;11.55;;;;;;;;;;2542555;23;20010;-73
2023/06/18 22:02:11;;;;;;;17.20;11.48;;;;;;;;;;2543453;23;20009;-74
2023/06/18 22:03:32;;;;;;;22.60;13.00;;;;;;;;;;2543100;23;20343;-73
2023/06/18 22:04:53;;;;;;;17.42;11.20;;;;;;;;;;2543625;23;20006;-73
2023/06/18 22:06:14;;;;;;;18.98;12.15;;;;;;;;;;2543513;23;20348;-73
2023/06/18 22:07:37;;;;;;;18.17;11.43;;;;;;;;;;2532201;23;20006;-73
2023/06/18 22:08:58;;;;;;;18.75;11.65;;;;;;;;;;2531359;23;20093;-73
2023/06/18 22:10:19;;;;;;;19.73;11.65;;;;;;;;;;2530518;23;20029;-74
2023/06/18 22:11:40;;;;;;;17.42;10.27;;;;;;;;;;2542982;23;20012;-74
2023/06/18 22:13:04;;;;;;;16.05;10.30;;;;;;;;;;2544873;23;20013;-74
2023/06/18 22:14:25;;;;;;;17.65;9.85;;;;;;;;;;2545809;23;20440;-73
2023/06/18 22:15:46;;;;;;;18.33;10.68;;;;;;;;;;2543382;23;20017;-72
2023/06/18 22:17:07;;;;;;;18.10;11.15;;;;;;;;;;2542498;23;20020;-73
2023/06/18 22:18:28;;;;;;;14.40;10.93;;;;;;;;;;2543997;23;20431;-72
2023/06/18 22:19:49;;;;;;;21.15;10.85;;;;;;;;;;2543106;23;20010;-74
2023/06/18 22:21:10;;;;;;;19.00;9.88;;;;;;;;;;2532549;23;20411;-73
2023/06/18 22:22:31;;;;;;;18.65;10.82;;;;;;;;;;2540449;23;20097;-74
2023/06/18 22:23:55;;;;;;;16.35;10.10;;;;;;;;;;2546409;23;20009;-73
2023/06/18 22:25:16;;;;;;;18.38;11.52;;;;;;;;;;2531060;23;20484;-73
2023/06/18 22:26:37;;;;;;;17.88;10.13;;;;;;;;;;2539719;23;20013;-72
2023/06/18 22:27:58;;;;;;;16.50;10.00;;;;;;;;;;2545460;23;20005;-72
2023/06/18 22:29:21;;;;;;;17.45;10.30;;;;;;;;;;2543814;23;20006;-72
2023/06/18 22:30:42;;;;;;;19.30;11.10;;;;;;;;;;2542793;23;20340;-73
2023/06/18 22:32:02;;;;;;;14.55;9.38;;;;;;;;;;2529574;23;20431;-72
2023/06/18 22:33:24;;;;;;;17.17;9.63;;;;;;;;;;2540365;23;20010;-72
2023/06/18 22:34:44;;;;;;;20.67;11.27;;;;;;;;;;2531971;23;20014;-74
2023/06/18 22:36:05;;;;;;;17.27;10.25;;;;;;;;;;2541802;23;20010;-73
2023/06/18 22:37:27;;;;;;;15.25;9.20;;;;;;;;;;2531737;23;20010;-76
2023/06/18 22:38:50;;;;;;;14.07;9.98;;;;;;;;;;2532889;23;20030;-76
2023/06/18 22:40:12;;;;;;;15.05;10.00;;;;;;;;;;2531756;23;20014;-77
2023/06/18 22:41:33;;;;;;;14.65;9.85;;;;;;;;;;2539383;23;20005;-76